sensor_id;sensor_type;location;lat;lon;timestamp;temperature;humidity
4578;DHT22;2301;47.354;8.528;2023-05-16T00:02:07;13.70;93.10
4578;DHT22;2301;47.354;8.528;2023-05-16T00:04:35;13.70;93.20
4578;DHT22;2301;47.354;8.528;2023-05-16T00:07:04;13.70;93.20
4578;DHT22;2301;47.354;8.528;2023-05-16T00:09:31;13.70;93.20
4578;DHT22;2301;47.354;8.528;2023-05-16T00:11:57;13.60;93.10
4578;DHT22;2301;47.354;8.528;2023-05-16T00:14:25;13.60;93.10
4578;DHT22;2301;47.354;8.528;2023-05-16T00:16:53;13.60;93.10
4578;DHT22;2301;47.354;8.528;2023-05-16T00:19:19;13.60;93.10
4578;DHT22;2301;47.354;8.528;2023-05-16T00:21:46;13.70;93.30
4578;DHT22;2301;47.354;8.528;2023-05-16T00:24:15;13.70;93.30
4578;DHT22;2301;47.354;8.528;2023-05-16T00:26:42;13.70;93.40
4578;DHT22;2301;47.354;8.528;2023-05-16T00:29:08;13.70;93.40
4578;DHT22;2301;47.354;8.528;2023-05-16T00:31:36;13.70;93.40
4578;DHT22;2301;47.354;8.528;2023-05-16T00:34:03;13.70;93.40
4578;DHT22;2301;47.354;8.528;2023-05-16T00:36:30;13.80;93.40
4578;DHT22;2301;47.354;8.528;2023-05-16T00:38:57;13.80;93.30
4578;DHT22;2301;47.354;8.528;2023-05-16T00:41:26;13.80;93.30
4578;DHT22;2301;47.354;8.528;2023-05-16T00:43:53;13.80;93.30
4578;DHT22;2301;47.354;8.528;2023-05-16T00:46:20;13.80;93.30
4578;DHT22;2301;47.354;8.528;2023-05-16T00:48:47;13.80;93.30
4578;DHT22;2301;47.354;8.528;2023-05-16T00:51:15;13.80;93.10
4578;DHT22;2301;47.354;8.528;2023-05-16T00:53:42;13.80;93.10
4578;DHT22;2301;47.354;8.528;2023-05-16T00:56:10;13.90;93.20
4578;DHT22;2301;47.354;8.528;2023-05-16T00:58:38;13.80;93.20
4578;DHT22;2301;47.354;8.528;2023-05-16T01:01:05;13.90;93.40
4578;DHT22;2301;47.354;8.528;2023-05-16T01:03:32;13.80;93.40
4578;DHT22;2301;47.354;8.528;2023-05-16T01:05:59;13.80;93.50
4578;DHT22;2301;47.354;8.528;2023-05-16T01:08:26;13.80;93.50
4578;DHT22;2301;47.354;8.528;2023-05-16T01:10:59;13.80;93.60
4578;DHT22;2301;47.354;8.528;2023-05-16T01:13:34;13.80;93.70
4578;DHT22;2301;47.354;8.528;2023-05-16T01:16:09;13.80;93.70
4578;DHT22;2301;47.354;8.528;2023-05-16T01:18:41;13.80;93.70
4578;DHT22;2301;47.354;8.528;2023-05-16T01:21:16;13.80;93.70
4578;DHT22;2301;47.354;8.528;2023-05-16T01:23:51;13.80;93.80
4578;DHT22;2301;47.354;8.528;2023-05-16T01:26:25;13.90;93.80
4578;DHT22;2301;47.354;8.528;2023-05-16T01:28:53;13.90;93.80
4578;DHT22;2301;47.354;8.528;2023-05-16T01:31:21;13.80;93.80
4578;DHT22;2301;47.354;8.528;2023-05-16T01:33:49;13.90;93.80
4578;DHT22;2301;47.354;8.528;2023-05-16T01:36:23;13.80;93.80
4578;DHT22;2301;47.354;8.528;2023-05-16T01:39:01;13.80;93.90
4578;DHT22;2301;47.354;8.528;2023-05-16T01:41:36;13.80;94.00
4578;DHT22;2301;47.354;8.528;2023-05-16T01:44:10;13.80;94.00
4578;DHT22;2301;47.354;8.528;2023-05-16T01:46:44;13.80;94.00
4578;DHT22;2301;47.354;8.528;2023-05-16T01:49:17;13.80;94.00
4578;DHT22;2301;47.354;8.528;2023-05-16T01:51:50;13.80;94.00
4578;DHT22;2301;47.354;8.528;2023-05-16T01:54:19;13.80;94.00
4578;DHT22;2301;47.354;8.528;2023-05-16T01:56:51;13.80;94.00
4578;DHT22;2301;47.354;8.528;2023-05-16T01:59:19;13.80;94.30
4578;DHT22;2301;47.354;8.528;2023-05-16T02:01:47;13.80;94.00
4578;DHT22;2301;47.354;8.528;2023-05-16T02:04:14;13.80;94.00
4578;DHT22;2301;47.354;8.528;2023-05-16T02:06:41;13.80;93.90
4578;DHT22;2301;47.354;8.528;2023-05-16T02:09:09;13.80;93.90
4578;DHT22;2301;47.354;8.528;2023-05-16T02:11:36;13.80;93.90
4578;DHT22;2301;47.354;8.528;2023-05-16T02:14:04;13.80;93.80
4578;DHT22;2301;47.354;8.528;2023-05-16T02:16:32;13.80;93.80
4578;DHT22;2301;47.354;8.528;2023-05-16T02:18:59;13.80;93.80
4578;DHT22;2301;47.354;8.528;2023-05-16T02:21:26;13.80;93.80
4578;DHT22;2301;47.354;8.528;2023-05-16T02:23:53;13.80;93.70
4578;DHT22;2301;47.354;8.528;2023-05-16T02:26:20;13.80;93.70
4578;DHT22;2301;47.354;8.528;2023-05-16T02:28:47;13.80;93.70
4578;DHT22;2301;47.354;8.528;2023-05-16T02:31:26;13.80;93.80
4578;DHT22;2301;47.354;8.528;2023-05-16T02:33:53;13.80;93.80
4578;DHT22;2301;47.354;8.528;2023-05-16T02:36:20;13.80;93.80
4578;DHT22;2301;47.354;8.528;2023-05-16T02:38:47;13.80;93.80
4578;DHT22;2301;47.354;8.528;2023-05-16T02:41:14;13.80;93.80
4578;DHT22;2301;47.354;8.528;2023-05-16T02:43:41;13.80;93.80
4578;DHT22;2301;47.354;8.528;2023-05-16T02:46:22;13.80;93.80
4578;DHT22;2301;47.354;8.528;2023-05-16T02:48:51;13.80;93.80
4578;DHT22;2301;47.354;8.528;2023-05-16T02:51:20;13.80;93.80
4578;DHT22;2301;47.354;8.528;2023-05-16T02:53:47;13.80;93.80
4578;DHT22;2301;47.354;8.528;2023-05-16T02:56:14;13.80;93.90
4578;DHT22;2301;47.354;8.528;2023-05-16T02:58:41;13.80;93.90
4578;DHT22;2301;47.354;8.528;2023-05-16T03:01:09;13.80;94.00
4578;DHT22;2301;47.354;8.528;2023-05-16T03:03:36;13.80;94.00
4578;DHT22;2301;47.354;8.528;2023-05-16T03:06:04;13.80;94.00
4578;DHT22;2301;47.354;8.528;2023-05-16T03:08:31;13.80;94.00
4578;DHT22;2301;47.354;8.528;2023-05-16T03:10:59;13.80;94.10
4578;DHT22;2301;47.354;8.528;2023-05-16T03:13:26;13.80;94.10
4578;DHT22;2301;47.354;8.528;2023-05-16T03:15:55;13.80;94.10
4578;DHT22;2301;47.354;8.528;2023-05-16T03:18:22;13.80;94.10
4578;DHT22;2301;47.354;8.528;2023-05-16T03:20:49;13.80;94.10
4578;DHT22;2301;47.354;8.528;2023-05-16T03:23:18;13.80;94.10
4578;DHT22;2301;47.354;8.528;2023-05-16T03:25:46;13.80;94.20
4578;DHT22;2301;47.354;8.528;2023-05-16T03:28:13;13.80;94.20
4578;DHT22;2301;47.354;8.528;2023-05-16T03:30:40;13.80;94.30
4578;DHT22;2301;47.354;8.528;2023-05-16T03:33:07;13.80;94.30
4578;DHT22;2301;47.354;8.528;2023-05-16T03:35:34;13.80;94.30
4578;DHT22;2301;47.354;8.528;2023-05-16T03:38:02;13.90;94.40
4578;DHT22;2301;47.354;8.528;2023-05-16T03:40:31;13.80;94.40
4578;DHT22;2301;47.354;8.528;2023-05-16T03:42:58;13.80;94.50
4578;DHT22;2301;47.354;8.528;2023-05-16T03:45:24;13.80;94.60
4578;DHT22;2301;47.354;8.528;2023-05-16T03:47:51;13.80;94.60
4578;DHT22;2301;47.354;8.528;2023-05-16T03:50:18;13.80;94.60
4578;DHT22;2301;47.354;8.528;2023-05-16T03:52:45;13.90;94.60
4578;DHT22;2301;47.354;8.528;2023-05-16T03:55:12;13.80;94.50
4578;DHT22;2301;47.354;8.528;2023-05-16T03:57:41;13.80;94.50
4578;DHT22;2301;47.354;8.528;2023-05-16T04:00:09;13.90;94.60
4578;DHT22;2301;47.354;8.528;2023-05-16T04:02:37;13.80;94.60
4578;DHT22;2301;47.354;8.528;2023-05-16T04:05:06;13.80;94.60
4578;DHT22;2301;47.354;8.528;2023-05-16T04:07:33;13.80;94.70
4578;DHT22;2301;47.354;8.528;2023-05-16T04:10:00;13.80;94.70
4578;DHT22;2301;47.354;8.528;2023-05-16T04:12:27;13.80;94.80
4578;DHT22;2301;47.354;8.528;2023-05-16T04:14:55;13.80;94.80
4578;DHT22;2301;47.354;8.528;2023-05-16T04:17:23;13.80;94.90
4578;DHT22;2301;47.354;8.528;2023-05-16T04:19:50;13.90;94.90
4578;DHT22;2301;47.354;8.528;2023-05-16T04:22:16;13.80;94.90
4578;DHT22;2301;47.354;8.528;2023-05-16T04:24:44;13.90;95.00
4578;DHT22;2301;47.354;8.528;2023-05-16T04:27:11;13.80;94.90
4578;DHT22;2301;47.354;8.528;2023-05-16T04:29:38;13.80;94.90
4578;DHT22;2301;47.354;8.528;2023-05-16T04:32:07;13.80;95.00
4578;DHT22;2301;47.354;8.528;2023-05-16T04:34:35;13.80;95.00
4578;DHT22;2301;47.354;8.528;2023-05-16T04:37:03;13.80;94.90
4578;DHT22;2301;47.354;8.528;2023-05-16T04:39:33;13.80;94.90
4578;DHT22;2301;47.354;8.528;2023-05-16T04:42:00;13.80;94.90
4578;DHT22;2301;47.354;8.528;2023-05-16T04:44:28;13.80;94.80
4578;DHT22;2301;47.354;8.528;2023-05-16T04:46:55;13.80;94.80
4578;DHT22;2301;47.354;8.528;2023-05-16T04:49:24;13.90;94.80
4578;DHT22;2301;47.354;8.528;2023-05-16T04:51:50;13.90;94.80
4578;DHT22;2301;47.354;8.528;2023-05-16T04:54:17;13.90;94.80
4578;DHT22;2301;47.354;8.528;2023-05-16T04:56:44;13.90;94.70
4578;DHT22;2301;47.354;8.528;2023-05-16T04:59:11;13.90;94.60
4578;DHT22;2301;47.354;8.528;2023-05-16T05:01:38;13.90;94.60
4578;DHT22;2301;47.354;8.528;2023-05-16T05:04:05;14.00;94.60
4578;DHT22;2301;47.354;8.528;2023-05-16T05:06:33;14.00;94.60
4578;DHT22;2301;47.354;8.528;2023-05-16T05:09:00;14.00;94.60
4578;DHT22;2301;47.354;8.528;2023-05-16T05:11:27;13.90;94.50
4578;DHT22;2301;47.354;8.528;2023-05-16T05:13:55;14.00;94.50
4578;DHT22;2301;47.354;8.528;2023-05-16T05:16:22;14.00;94.50
4578;DHT22;2301;47.354;8.528;2023-05-16T05:18:49;14.00;94.40
4578;DHT22;2301;47.354;8.528;2023-05-16T05:21:17;14.00;94.30
4578;DHT22;2301;47.354;8.528;2023-05-16T05:23:46;14.00;94.20
4578;DHT22;2301;47.354;8.528;2023-05-16T05:26:14;14.10;94.20
4578;DHT22;2301;47.354;8.528;2023-05-16T05:28:41;14.00;94.50
4578;DHT22;2301;47.354;8.528;2023-05-16T05:31:08;14.10;94.50
4578;DHT22;2301;47.354;8.528;2023-05-16T05:33:36;14.10;94.20
4578;DHT22;2301;47.354;8.528;2023-05-16T05:36:03;14.10;94.20
4578;DHT22;2301;47.354;8.528;2023-05-16T05:38:30;14.10;94.10
4578;DHT22;2301;47.354;8.528;2023-05-16T05:40:59;14.20;94.10
4578;DHT22;2301;47.354;8.528;2023-05-16T05:43:26;14.10;94.10
4578;DHT22;2301;47.354;8.528;2023-05-16T05:45:53;14.20;94.10
4578;DHT22;2301;47.354;8.528;2023-05-16T05:48:20;14.20;94.00
4578;DHT22;2301;47.354;8.528;2023-05-16T05:50:47;14.20;94.00
4578;DHT22;2301;47.354;8.528;2023-05-16T05:53:14;14.20;94.00
4578;DHT22;2301;47.354;8.528;2023-05-16T05:55:41;14.20;93.90
4578;DHT22;2301;47.354;8.528;2023-05-16T05:58:09;14.30;93.80
4578;DHT22;2301;47.354;8.528;2023-05-16T06:00:36;14.20;93.80
4578;DHT22;2301;47.354;8.528;2023-05-16T06:03:03;14.20;93.70
4578;DHT22;2301;47.354;8.528;2023-05-16T06:05:30;14.20;93.60
4578;DHT22;2301;47.354;8.528;2023-05-16T06:07:57;14.20;93.50
4578;DHT22;2301;47.354;8.528;2023-05-16T06:10:24;14.20;93.40
4578;DHT22;2301;47.354;8.528;2023-05-16T06:12:51;14.30;93.30
4578;DHT22;2301;47.354;8.528;2023-05-16T06:15:19;14.30;93.30
4578;DHT22;2301;47.354;8.528;2023-05-16T06:17:46;14.30;93.30
4578;DHT22;2301;47.354;8.528;2023-05-16T06:20:14;14.30;93.30
4578;DHT22;2301;47.354;8.528;2023-05-16T06:22:41;14.40;93.30
4578;DHT22;2301;47.354;8.528;2023-05-16T06:25:08;14.40;93.10
4578;DHT22;2301;47.354;8.528;2023-05-16T06:27:35;14.40;93.00
4578;DHT22;2301;47.354;8.528;2023-05-16T06:30:03;14.40;93.00
4578;DHT22;2301;47.354;8.528;2023-05-16T06:32:32;14.40;93.00
4578;DHT22;2301;47.354;8.528;2023-05-16T06:34:59;14.40;92.90
4578;DHT22;2301;47.354;8.528;2023-05-16T06:37:26;14.40;92.80
4578;DHT22;2301;47.354;8.528;2023-05-16T06:39:53;14.40;92.70
4578;DHT22;2301;47.354;8.528;2023-05-16T06:42:20;14.50;92.70
4578;DHT22;2301;47.354;8.528;2023-05-16T06:44:47;14.50;93.00
4578;DHT22;2301;47.354;8.528;2023-05-16T06:47:14;14.50;92.60
4578;DHT22;2301;47.354;8.528;2023-05-16T06:49:43;14.40;92.50
4578;DHT22;2301;47.354;8.528;2023-05-16T06:52:10;14.40;92.40
4578;DHT22;2301;47.354;8.528;2023-05-16T06:54:37;14.50;92.40
4578;DHT22;2301;47.354;8.528;2023-05-16T06:57:04;14.50;92.40
4578;DHT22;2301;47.354;8.528;2023-05-16T06:59:33;14.40;92.30
4578;DHT22;2301;47.354;8.528;2023-05-16T07:02:00;14.40;92.30
4578;DHT22;2301;47.354;8.528;2023-05-16T07:04:27;14.50;92.40
4578;DHT22;2301;47.354;8.528;2023-05-16T07:06:55;14.50;92.60
4578;DHT22;2301;47.354;8.528;2023-05-16T07:09:22;14.50;92.20
4578;DHT22;2301;47.354;8.528;2023-05-16T07:11:49;14.50;92.10
4578;DHT22;2301;47.354;8.528;2023-05-16T07:14:16;14.50;92.00
4578;DHT22;2301;47.354;8.528;2023-05-16T07:16:43;14.50;91.90
4578;DHT22;2301;47.354;8.528;2023-05-16T07:19:09;14.50;91.80
4578;DHT22;2301;47.354;8.528;2023-05-16T07:21:36;14.50;91.80
4578;DHT22;2301;47.354;8.528;2023-05-16T07:24:05;14.50;91.80
4578;DHT22;2301;47.354;8.528;2023-05-16T07:26:32;14.50;91.80
4578;DHT22;2301;47.354;8.528;2023-05-16T07:28:59;14.50;91.90
4578;DHT22;2301;47.354;8.528;2023-05-16T07:31:27;14.60;91.90
4578;DHT22;2301;47.354;8.528;2023-05-16T07:33:54;14.60;91.90
4578;DHT22;2301;47.354;8.528;2023-05-16T07:36:21;14.60;91.90
4578;DHT22;2301;47.354;8.528;2023-05-16T07:38:48;14.60;91.70
4578;DHT22;2301;47.354;8.528;2023-05-16T07:41:16;14.60;91.80
4578;DHT22;2301;47.354;8.528;2023-05-16T07:43:43;14.60;91.70
4578;DHT22;2301;47.354;8.528;2023-05-16T07:46:10;14.60;91.70
4578;DHT22;2301;47.354;8.528;2023-05-16T07:48:38;14.70;91.70
4578;DHT22;2301;47.354;8.528;2023-05-16T07:51:05;14.70;91.70
4578;DHT22;2301;47.354;8.528;2023-05-16T07:53:32;14.70;91.70
4578;DHT22;2301;47.354;8.528;2023-05-16T07:55:59;14.70;91.60
4578;DHT22;2301;47.354;8.528;2023-05-16T07:58:27;14.70;91.50
4578;DHT22;2301;47.354;8.528;2023-05-16T08:00:55;14.70;91.50
4578;DHT22;2301;47.354;8.528;2023-05-16T08:03:22;14.80;91.60
4578;DHT22;2301;47.354;8.528;2023-05-16T08:05:49;14.70;91.50
4578;DHT22;2301;47.354;8.528;2023-05-16T08:08:16;14.80;91.60
4578;DHT22;2301;47.354;8.528;2023-05-16T08:10:43;14.80;91.70
4578;DHT22;2301;47.354;8.528;2023-05-16T08:13:10;14.80;91.80
4578;DHT22;2301;47.354;8.528;2023-05-16T08:15:38;14.90;91.80
4578;DHT22;2301;47.354;8.528;2023-05-16T08:18:11;14.90;91.70
4578;DHT22;2301;47.354;8.528;2023-05-16T08:20:38;15.00;91.60
4578;DHT22;2301;47.354;8.528;2023-05-16T08:23:06;15.00;91.60
4578;DHT22;2301;47.354;8.528;2023-05-16T08:25:33;15.00;91.50
4578;DHT22;2301;47.354;8.528;2023-05-16T08:28:00;15.10;91.50
4578;DHT22;2301;47.354;8.528;2023-05-16T08:30:27;15.10;91.30
4578;DHT22;2301;47.354;8.528;2023-05-16T08:32:56;15.10;91.10
4578;DHT22;2301;47.354;8.528;2023-05-16T08:35:23;15.10;90.90
4578;DHT22;2301;47.354;8.528;2023-05-16T08:37:50;15.20;91.20
4578;DHT22;2301;47.354;8.528;2023-05-16T08:40:17;15.20;91.50
4578;DHT22;2301;47.354;8.528;2023-05-16T08:42:45;15.20;91.10
4578;DHT22;2301;47.354;8.528;2023-05-16T08:45:12;15.20;90.90
4578;DHT22;2301;47.354;8.528;2023-05-16T08:47:41;15.20;90.70
4578;DHT22;2301;47.354;8.528;2023-05-16T08:50:11;15.20;90.60
4578;DHT22;2301;47.354;8.528;2023-05-16T08:52:41;15.20;90.60
4578;DHT22;2301;47.354;8.528;2023-05-16T08:55:10;15.20;90.60
4578;DHT22;2301;47.354;8.528;2023-05-16T08:57:37;15.20;90.60
4578;DHT22;2301;47.354;8.528;2023-05-16T09:00:06;15.20;90.60
4578;DHT22;2301;47.354;8.528;2023-05-16T09:02:37;15.20;90.40
4578;DHT22;2301;47.354;8.528;2023-05-16T09:05:07;15.30;90.30
4578;DHT22;2301;47.354;8.528;2023-05-16T09:07:35;15.20;90.00
4578;DHT22;2301;47.354;8.528;2023-05-16T09:10:03;15.20;89.80
4578;DHT22;2301;47.354;8.528;2023-05-16T09:12:31;15.30;90.00
4578;DHT22;2301;47.354;8.528;2023-05-16T09:14:59;15.30;90.10
4578;DHT22;2301;47.354;8.528;2023-05-16T09:17:33;15.30;90.00
4578;DHT22;2301;47.354;8.528;2023-05-16T09:20:07;15.40;90.10
4578;DHT22;2301;47.354;8.528;2023-05-16T09:22:36;15.40;90.00
4578;DHT22;2301;47.354;8.528;2023-05-16T09:25:04;15.40;90.00
4578;DHT22;2301;47.354;8.528;2023-05-16T09:27:31;15.40;90.00
4578;DHT22;2301;47.354;8.528;2023-05-16T09:29:58;15.50;90.00
4578;DHT22;2301;47.354;8.528;2023-05-16T09:32:25;15.60;89.90
4578;DHT22;2301;47.354;8.528;2023-05-16T09:34:53;15.70;89.80
4578;DHT22;2301;47.354;8.528;2023-05-16T09:37:23;15.80;89.30
4578;DHT22;2301;47.354;8.528;2023-05-16T09:39:52;16.00;89.10
4578;DHT22;2301;47.354;8.528;2023-05-16T09:42:20;16.20;89.60
4578;DHT22;2301;47.354;8.528;2023-05-16T09:44:49;16.50;88.70
4578;DHT22;2301;47.354;8.528;2023-05-16T09:47:17;16.70;88.50
4578;DHT22;2301;47.354;8.528;2023-05-16T09:49:45;16.80;87.60
4578;DHT22;2301;47.354;8.528;2023-05-16T09:52:13;16.80;86.70
4578;DHT22;2301;47.354;8.528;2023-05-16T09:54:41;16.70;86.10
4578;DHT22;2301;47.354;8.528;2023-05-16T09:57:09;16.50;86.00
4578;DHT22;2301;47.354;8.528;2023-05-16T09:59:36;16.40;85.20
4578;DHT22;2301;47.354;8.528;2023-05-16T10:02:05;16.30;86.40
4578;DHT22;2301;47.354;8.528;2023-05-16T10:04:33;16.10;88.00
4578;DHT22;2301;47.354;8.528;2023-05-16T10:07:02;16.00;88.90
4578;DHT22;2301;47.354;8.528;2023-05-16T10:09:31;15.90;89.60
4578;DHT22;2301;47.354;8.528;2023-05-16T10:12:00;15.90;90.00
4578;DHT22;2301;47.354;8.528;2023-05-16T10:14:33;15.80;90.30
4578;DHT22;2301;47.354;8.528;2023-05-16T10:17:02;15.80;90.70
4578;DHT22;2301;47.354;8.528;2023-05-16T10:19:31;15.70;90.90
4578;DHT22;2301;47.354;8.528;2023-05-16T10:22:04;15.60;91.00
4578;DHT22;2301;47.354;8.528;2023-05-16T10:24:38;15.60;91.40
4578;DHT22;2301;47.354;8.528;2023-05-16T10:27:06;15.60;91.70
4578;DHT22;2301;47.354;8.528;2023-05-16T10:29:35;15.60;91.80
4578;DHT22;2301;47.354;8.528;2023-05-16T10:32:04;15.50;91.80
4578;DHT22;2301;47.354;8.528;2023-05-16T10:34:31;15.50;91.90
4578;DHT22;2301;47.354;8.528;2023-05-16T10:36:58;15.40;91.90
4578;DHT22;2301;47.354;8.528;2023-05-16T10:39:27;15.40;92.00
4578;DHT22;2301;47.354;8.528;2023-05-16T10:41:56;15.40;92.20
4578;DHT22;2301;47.354;8.528;2023-05-16T10:44:24;15.40;92.40
4578;DHT22;2301;47.354;8.528;2023-05-16T10:46:52;15.30;92.50
4578;DHT22;2301;47.354;8.528;2023-05-16T10:49:21;15.30;92.60
4578;DHT22;2301;47.354;8.528;2023-05-16T10:52:03;15.20;92.80
4578;DHT22;2301;47.354;8.528;2023-05-16T10:54:35;15.20;93.20
4578;DHT22;2301;47.354;8.528;2023-05-16T10:57:07;15.20;93.20
4578;DHT22;2301;47.354;8.528;2023-05-16T10:59:42;15.20;93.10
4578;DHT22;2301;47.354;8.528;2023-05-16T11:02:23;15.20;92.80
4578;DHT22;2301;47.354;8.528;2023-05-16T11:04:51;15.20;92.80
4578;DHT22;2301;47.354;8.528;2023-05-16T11:07:20;15.10;92.70
4578;DHT22;2301;47.354;8.528;2023-05-16T11:10:01;15.10;92.80
4578;DHT22;2301;47.354;8.528;2023-05-16T11:12:45;15.10;93.00
4578;DHT22;2301;47.354;8.528;2023-05-16T11:15:18;15.10;93.10
4578;DHT22;2301;47.354;8.528;2023-05-16T11:17:47;15.10;93.00
4578;DHT22;2301;47.354;8.528;2023-05-16T11:20:25;15.10;93.00
4578;DHT22;2301;47.354;8.528;2023-05-16T11:23:17;15.10;93.10
4578;DHT22;2301;47.354;8.528;2023-05-16T11:25:45;15.00;92.80
4578;DHT22;2301;47.354;8.528;2023-05-16T11:28:14;15.00;92.70
4578;DHT22;2301;47.354;8.528;2023-05-16T11:30:42;14.90;92.70
4578;DHT22;2301;47.354;8.528;2023-05-16T11:33:11;14.90;92.70
4578;DHT22;2301;47.354;8.528;2023-05-16T11:35:38;14.80;92.80
4578;DHT22;2301;47.354;8.528;2023-05-16T11:38:10;14.80;93.10
4578;DHT22;2301;47.354;8.528;2023-05-16T11:40:41;14.80;93.20
4578;DHT22;2301;47.354;8.528;2023-05-16T11:43:08;14.80;93.30
4578;DHT22;2301;47.354;8.528;2023-05-16T11:45:36;14.70;93.40
4578;DHT22;2301;47.354;8.528;2023-05-16T11:48:04;14.70;93.30
4578;DHT22;2301;47.354;8.528;2023-05-16T11:50:34;14.60;93.40
4578;DHT22;2301;47.354;8.528;2023-05-16T11:53:01;14.60;93.70
4578;DHT22;2301;47.354;8.528;2023-05-16T11:55:29;14.60;93.80
4578;DHT22;2301;47.354;8.528;2023-05-16T11:57:57;14.60;93.90
4578;DHT22;2301;47.354;8.528;2023-05-16T12:00:26;14.60;94.00
4578;DHT22;2301;47.354;8.528;2023-05-16T12:02:54;14.60;94.10
4578;DHT22;2301;47.354;8.528;2023-05-16T12:05:21;14.50;94.10
4578;DHT22;2301;47.354;8.528;2023-05-16T12:07:54;14.50;94.00
4578;DHT22;2301;47.354;8.528;2023-05-16T12:10:21;14.50;94.10
4578;DHT22;2301;47.354;8.528;2023-05-16T12:12:50;14.50;94.30
4578;DHT22;2301;47.354;8.528;2023-05-16T12:15:18;14.50;94.30
4578;DHT22;2301;47.354;8.528;2023-05-16T12:17:46;14.50;94.40
4578;DHT22;2301;47.354;8.528;2023-05-16T12:20:14;14.50;94.40
4578;DHT22;2301;47.354;8.528;2023-05-16T12:22:42;14.50;94.50
4578;DHT22;2301;47.354;8.528;2023-05-16T12:25:25;14.50;94.60
4578;DHT22;2301;47.354;8.528;2023-05-16T12:27:53;14.50;94.70
4578;DHT22;2301;47.354;8.528;2023-05-16T12:30:21;14.50;94.70
4578;DHT22;2301;47.354;8.528;2023-05-16T12:32:54;14.50;94.80
4578;DHT22;2301;47.354;8.528;2023-05-16T12:35:22;14.50;95.00
4578;DHT22;2301;47.354;8.528;2023-05-16T12:37:49;14.50;95.10
4578;DHT22;2301;47.354;8.528;2023-05-16T12:40:17;14.60;95.30
4578;DHT22;2301;47.354;8.528;2023-05-16T12:42:48;14.60;95.30
4578;DHT22;2301;47.354;8.528;2023-05-16T12:45:16;14.60;95.30
4578;DHT22;2301;47.354;8.528;2023-05-16T12:47:43;14.60;95.30
4578;DHT22;2301;47.354;8.528;2023-05-16T12:50:12;14.70;95.40
4578;DHT22;2301;47.354;8.528;2023-05-16T12:52:48;14.70;95.30
4578;DHT22;2301;47.354;8.528;2023-05-16T12:55:15;14.80;95.30
4578;DHT22;2301;47.354;8.528;2023-05-16T12:57:43;14.70;95.50
4578;DHT22;2301;47.354;8.528;2023-05-16T13:00:15;14.70;95.10
4578;DHT22;2301;47.354;8.528;2023-05-16T13:02:43;14.70;95.10
4578;DHT22;2301;47.354;8.528;2023-05-16T13:05:11;14.70;95.10
4578;DHT22;2301;47.354;8.528;2023-05-16T13:07:38;14.60;94.90
4578;DHT22;2301;47.354;8.528;2023-05-16T13:10:06;14.60;95.30
4578;DHT22;2301;47.354;8.528;2023-05-16T13:12:35;14.60;94.70
4578;DHT22;2301;47.354;8.528;2023-05-16T13:15:03;14.60;94.70
4578;DHT22;2301;47.354;8.528;2023-05-16T13:17:33;14.60;94.60
4578;DHT22;2301;47.354;8.528;2023-05-16T13:20:01;14.50;94.50
4578;DHT22;2301;47.354;8.528;2023-05-16T13:22:29;14.60;94.60
4578;DHT22;2301;47.354;8.528;2023-05-16T13:24:56;14.60;94.60
4578;DHT22;2301;47.354;8.528;2023-05-16T13:27:23;14.60;94.60
4578;DHT22;2301;47.354;8.528;2023-05-16T13:29:50;14.60;94.50
4578;DHT22;2301;47.354;8.528;2023-05-16T13:32:17;14.60;94.60
4578;DHT22;2301;47.354;8.528;2023-05-16T13:34:45;14.60;94.50
4578;DHT22;2301;47.354;8.528;2023-05-16T13:37:12;14.60;94.50
4578;DHT22;2301;47.354;8.528;2023-05-16T13:39:39;14.70;94.60
4578;DHT22;2301;47.354;8.528;2023-05-16T13:42:07;14.70;94.70
4578;DHT22;2301;47.354;8.528;2023-05-16T13:44:34;14.70;94.70
4578;DHT22;2301;47.354;8.528;2023-05-16T13:47:01;14.70;94.70
4578;DHT22;2301;47.354;8.528;2023-05-16T13:49:28;14.80;94.80
4578;DHT22;2301;47.354;8.528;2023-05-16T13:51:57;14.80;94.70
4578;DHT22;2301;47.354;8.528;2023-05-16T13:54:26;14.90;94.70
4578;DHT22;2301;47.354;8.528;2023-05-16T13:56:53;14.90;94.70
4578;DHT22;2301;47.354;8.528;2023-05-16T13:59:20;15.00;94.60
4578;DHT22;2301;47.354;8.528;2023-05-16T14:01:47;14.90;94.60
4578;DHT22;2301;47.354;8.528;2023-05-16T14:04:14;14.90;94.90
4578;DHT22;2301;47.354;8.528;2023-05-16T14:06:42;14.90;94.70
4578;DHT22;2301;47.354;8.528;2023-05-16T14:09:10;14.90;94.10
4578;DHT22;2301;47.354;8.528;2023-05-16T14:11:39;14.90;94.20
4578;DHT22;2301;47.354;8.528;2023-05-16T14:14:06;14.80;93.60
4578;DHT22;2301;47.354;8.528;2023-05-16T14:16:33;14.70;93.00
4578;DHT22;2301;47.354;8.528;2023-05-16T14:19:00;14.70;93.00
4578;DHT22;2301;47.354;8.528;2023-05-16T14:21:27;14.70;93.00
4578;DHT22;2301;47.354;8.528;2023-05-16T14:23:54;14.70;93.40
4578;DHT22;2301;47.354;8.528;2023-05-16T14:26:23;14.60;92.90
4578;DHT22;2301;47.354;8.528;2023-05-16T14:28:51;14.60;92.90
4578;DHT22;2301;47.354;8.528;2023-05-16T14:31:18;14.60;92.90
4578;DHT22;2301;47.354;8.528;2023-05-16T14:33:45;14.50;92.70
4578;DHT22;2301;47.354;8.528;2023-05-16T14:36:12;14.50;92.80
4578;DHT22;2301;47.354;8.528;2023-05-16T14:38:39;14.40;92.60
4578;DHT22;2301;47.354;8.528;2023-05-16T14:41:06;14.40;92.60
4578;DHT22;2301;47.354;8.528;2023-05-16T14:43:35;14.40;92.50
4578;DHT22;2301;47.354;8.528;2023-05-16T14:46:03;14.40;92.30
4578;DHT22;2301;47.354;8.528;2023-05-16T14:48:30;14.30;92.20
4578;DHT22;2301;47.354;8.528;2023-05-16T14:50:57;14.30;92.50
4578;DHT22;2301;47.354;8.528;2023-05-16T14:53:24;14.30;92.60
4578;DHT22;2301;47.354;8.528;2023-05-16T14:55:51;14.30;92.60
4578;DHT22;2301;47.354;8.528;2023-05-16T14:58:18;14.30;92.80
4578;DHT22;2301;47.354;8.528;2023-05-16T15:00:47;14.30;93.00
4578;DHT22;2301;47.354;8.528;2023-05-16T15:03:15;14.20;93.00
4578;DHT22;2301;47.354;8.528;2023-05-16T15:05:42;14.30;93.10
4578;DHT22;2301;47.354;8.528;2023-05-16T15:08:09;14.30;93.10
4578;DHT22;2301;47.354;8.528;2023-05-16T15:10:36;14.20;92.60
4578;DHT22;2301;47.354;8.528;2023-05-16T15:13:03;14.20;92.60
4578;DHT22;2301;47.354;8.528;2023-05-16T15:15:30;14.20;92.70
4578;DHT22;2301;47.354;8.528;2023-05-16T15:17:59;14.20;92.80
4578;DHT22;2301;47.354;8.528;2023-05-16T15:20:26;14.20;92.80
4578;DHT22;2301;47.354;8.528;2023-05-16T15:22:53;14.20;92.50
4578;DHT22;2301;47.354;8.528;2023-05-16T15:25:20;14.20;92.20
4578;DHT22;2301;47.354;8.528;2023-05-16T15:27:47;14.20;92.60
4578;DHT22;2301;47.354;8.528;2023-05-16T15:30:14;14.30;92.40
4578;DHT22;2301;47.354;8.528;2023-05-16T15:32:41;14.20;92.50
4578;DHT22;2301;47.354;8.528;2023-05-16T15:35:10;14.20;92.50
4578;DHT22;2301;47.354;8.528;2023-05-16T15:37:37;14.20;92.30
4578;DHT22;2301;47.354;8.528;2023-05-16T15:40:05;14.20;92.30
4578;DHT22;2301;47.354;8.528;2023-05-16T15:42:33;14.20;92.00
4578;DHT22;2301;47.354;8.528;2023-05-16T15:45:00;14.20;91.90
4578;DHT22;2301;47.354;8.528;2023-05-16T15:47:27;14.20;92.00
4578;DHT22;2301;47.354;8.528;2023-05-16T15:49:54;14.10;92.00
4578;DHT22;2301;47.354;8.528;2023-05-16T15:52:22;14.10;92.20
4578;DHT22;2301;47.354;8.528;2023-05-16T15:54:49;14.10;92.30
4578;DHT22;2301;47.354;8.528;2023-05-16T15:57:16;14.10;92.20
4578;DHT22;2301;47.354;8.528;2023-05-16T15:59:43;14.10;92.30
4578;DHT22;2301;47.354;8.528;2023-05-16T16:02:10;14.10;92.30
4578;DHT22;2301;47.354;8.528;2023-05-16T16:04:38;14.10;92.30
4578;DHT22;2301;47.354;8.528;2023-05-16T16:07:05;14.00;92.10
4578;DHT22;2301;47.354;8.528;2023-05-16T16:09:33;14.00;92.40